Time;durP1;ratioP1;P1;durP2;ratioP2;P2;SDS_P1;SDS_P2;PMS_P1;PMS_P2;Temp;Humidity;BMP_temperature;BMP_pressure;BME280_temperature;BME280_humidity;BME280_pressure;Samples;Min_cycle;Max_cycle;Signal;HPM_P1;HPM_P2
2022/11/01 00:02:08;;;;;;;16.33;12.05;;;14.80;99.90;;;;;;5015214;28;92561;-77
2022/11/01 00:04:36;;;;;;;17.35;12.10;;;14.80;99.90;;;;;;5014189;28;95404;-76
2022/11/01 00:07:03;;;;;;;14.55;10.40;;;14.80;99.90;;;;;;5016092;28;95229;-76
2022/11/01 00:09:29;;;;;;;16.38;10.30;;;14.90;99.90;;;;;;5015242;28;92446;-76
2022/11/01 00:11:57;;;;;;;16.67;10.85;;;14.90;99.90;;;;;;4982157;28;93689;-77
2022/11/01 00:14:24;;;;;;;20.35;10.55;;;14.90;99.90;;;;;;5016378;28;93164;-77
2022/11/01 00:16:51;;;;;;;14.55;9.52;;;14.90;99.90;;;;;;5016429;28;93086;-76
2022/11/01 00:19:20;;;;;;;17.30;9.82;;;14.90;99.90;;;;;;5016916;28;92802;-76
2022/11/01 00:21:47;;;;;;;16.75;10.80;;;15.00;99.90;;;;;;5017341;28;91650;-76
2022/11/01 00:24:14;;;;;;;15.95;9.32;;;15.00;99.90;;;;;;5014719;28;93250;-76
2022/11/01 00:26:41;;;;;;;15.30;10.55;;;15.10;99.90;;;;;;5016136;28;93098;-77
2022/11/01 00:29:08;;;;;;;14.38;8.65;;;15.10;99.90;;;;;;5013621;28;95381;-77
2022/11/01 00:31:35;;;;;;;17.58;9.63;;;15.10;99.90;;;;;;5032281;28;92517;-77
2022/11/01 00:34:04;;;;;;;15.32;9.90;;;15.10;99.90;;;;;;5016434;28;93226;-77
2022/11/01 00:36:32;;;;;;;16.05;10.30;;;15.10;99.90;;;;;;5016278;28;103577;-76
2022/11/01 00:38:59;;;;;;;13.90;9.73;;;15.10;99.90;;;;;;5014416;28;92502;-77
2022/11/01 00:41:26;;;;;;;14.68;9.27;;;15.20;99.90;;;;;;5016928;28;92541;-77
2022/11/01 00:43:53;;;;;;;11.73;8.85;;;15.20;99.90;;;;;;5032239;28;93315;-77
2022/11/01 00:46:20;;;;;;;13.70;9.93;;;15.20;99.90;;;;;;5016710;28;93113;-76
2022/11/01 00:48:48;;;;;;;15.05;9.18;;;15.20;99.90;;;;;;5015200;28;92399;-76
2022/11/01 00:51:15;;;;;;;14.93;9.93;;;15.20;99.90;;;;;;5016504;28;93031;-75
2022/11/01 00:53:42;;;;;;;14.02;8.90;;;15.20;99.90;;;;;;5030694;28;95764;-74
2022/11/01 00:56:09;;;;;;;13.38;9.93;;;15.20;99.90;;;;;;5016060;28;95234;-75
2022/11/01 00:58:36;;;;;;;12.43;9.50;;;15.20;99.90;;;;;;5015380;28;92423;-75
2022/11/01 01:01:03;;;;;;;15.63;10.02;;;15.30;99.90;;;;;;5016621;28;92865;-75
2022/11/01 01:03:30;;;;;;;13.77;9.55;;;15.30;99.90;;;;;;5015021;28;101390;-74
2022/11/01 01:05:57;;;;;;;13.85;10.02;;;15.30;99.90;;;;;;4998409;28;92545;-75
2022/11/01 01:08:24;;;;;;;16.02;8.60;;;15.30;99.90;;;;;;4997336;28;92494;-74
2022/11/01 01:10:52;;;;;;;14.27;8.85;;;15.30;99.90;;;;;;5015357;28;91775;-75
2022/11/01 01:13:20;;;;;;;15.27;8.88;;;15.40;99.90;;;;;;5014488;28;95848;-75
2022/11/01 01:15:47;;;;;;;12.70;8.82;;;15.40;99.90;;;;;;5015798;28;93484;-74
2022/11/01 01:18:14;;;;;;;14.07;8.98;;;15.40;99.90;;;;;;5014894;28;94841;-74
2022/11/01 01:20:41;;;;;;;14.63;8.60;;;15.50;99.90;;;;;;5014922;28;92586;-74
2022/11/01 01:23:08;;;;;;;13.70;9.27;;;15.40;99.90;;;;;;5014529;28;94228;-74
2022/11/01 01:25:39;;;;;;;12.85;8.20;;;15.40;99.90;;;;;;5015921;28;92958;-74
2022/11/01 01:28:06;;;;;;;13.38;9.10;;;15.50;99.90;;;;;;5015066;28;93007;-74
2022/11/01 01:30:33;;;;;;;14.18;8.85;;;15.50;99.90;;;;;;5030856;28;96254;-74
2022/11/01 01:33:00;;;;;;;13.63;8.63;;;15.50;99.90;;;;;;5014292;28;94080;-74
2022/11/01 01:35:27;;;;;;;10.18;7.45;;;15.50;99.90;;;;;;5014730;28;93247;-74
2022/11/01 01:37:53;;;;;;;13.43;8.60;;;15.50;99.90;;;;;;5010527;28;92474;-75
2022/11/01 01:40:20;;;;;;;12.30;7.30;;;15.60;99.90;;;;;;5014417;28;92521;-74
2022/11/01 01:42:47;;;;;;;14.20;8.88;;;15.60;99.90;;;;;;5014285;28;95743;-74
2022/11/01 01:45:36;;;;;;;13.80;8.10;;;15.60;99.90;;;;;;5014047;28;95419;-74
2022/11/01 01:48:13;;;;;;;11.98;8.38;;;15.70;99.90;;;;;;5015842;28;92489;-74
2022/11/01 01:50:54;;;;;;;12.05;7.68;;;15.60;99.90;;;;;;5015956;28;92451;-74
2022/11/01 01:53:24;;;;;;;13.20;7.80;;;15.80;99.90;;;;;;5015543;28;93166;-74
2022/11/01 01:56:04;;;;;;;13.50;8.68;;;15.70;99.90;;;;;;5014243;28;93994;-74
2022/11/01 01:58:36;;;;;;;10.40;7.40;;;15.80;99.90;;;;;;5031087;28;92514;-75
2022/11/01 02:01:03;;;;;;;12.75;7.25;;;15.80;99.90;;;;;;5016035;28;91614;-74
2022/11/01 02:03:32;;;;;;;15.15;7.72;;;15.90;99.90;;;;;;5015016;28;93476;-74
2022/11/01 02:06:12;;;;;;;13.75;7.10;;;15.90;99.90;;;;;;5014181;28;94485;-74
2022/11/01 02:08:42;;;;;;;11.20;8.18;;;15.90;99.90;;;;;;5014225;28;94860;-74
2022/11/01 02:11:10;;;;;;;10.50;6.90;;;15.90;99.90;;;;;;5014164;28;93016;-75
2022/11/01 02:13:38;;;;;;;8.82;7.05;;;16.00;99.90;;;;;;5013700;28;96095;-74
2022/11/01 02:16:13;;;;;;;10.60;6.78;;;15.90;99.90;;;;;;5030687;28;95782;-74
2022/11/01 02:19:00;;;;;;;13.15;7.72;;;15.90;99.90;;;;;;5015256;28;93435;-74
2022/11/01 02:21:45;;;;;;;10.52;6.57;;;15.90;99.90;;;;;;5015554;28;93001;-74
2022/11/01 02:24:44;;;;;;;13.60;7.65;;;16.00;99.90;;;;;;5015337;28;93345;-75
2022/11/01 02:27:46;;;;;;;13.95;6.75;;;16.00;99.90;;;;;;5008388;28;97018;-74
2022/11/01 02:30:23;;;;;;;12.50;7.20;;;15.90;99.90;;;;;;4998852;28;94269;-77
2022/11/01 02:33:10;;;;;;;11.70;7.82;;;15.90;99.90;;;;;;5015292;28;92439;-74
2022/11/01 02:35:49;;;;;;;11.63;6.68;;;15.90;99.90;;;;;;4981648;28;98369;-74
2022/11/01 02:38:28;;;;;;;10.60;7.00;;;15.90;99.90;;;;;;5014890;28;95306;-74
2022/11/01 02:41:40;;;;;;;9.25;6.50;;;15.90;99.90;;;;;;5013865;28;92429;-74
2022/11/01 02:44:14;;;;;;;13.68;7.13;;;16.00;99.90;;;;;;4972984;28;92568;-75
2022/11/01 02:46:59;;;;;;;12.73;6.55;;;15.90;99.90;;;;;;5011608;28;93234;-74
2022/11/01 02:49:36;;;;;;;11.88;7.22;;;15.90;99.90;;;;;;5016142;28;93211;-74
2022/11/01 02:52:06;;;;;;;11.15;6.82;;;15.90;99.90;;;;;;5017060;28;93335;-75
2022/11/01 02:54:38;;;;;;;13.63;7.07;;;16.00;99.90;;;;;;5018623;28;92193;-74
2022/11/01 02:57:29;;;;;;;9.57;6.50;;;16.00;99.90;;;;;;5016960;28;95516;-74
2022/11/01 03:00:03;;;;;;;11.48;7.00;;;16.10;99.90;;;;;;5017924;28;93077;-74
2022/11/01 03:02:42;;;;;;;10.63;6.13;;;16.00;99.90;;;;;;5017149;28;95259;-75
2022/11/01 03:05:46;;;;;;;11.50;5.72;;;16.10;99.90;;;;;;5016820;28;92548;-74
2022/11/01 03:08:17;;;;;;;12.13;6.18;;;16.10;99.90;;;;;;5017998;28;93340;-75
2022/11/01 03:11:06;;;;;;;11.35;6.55;;;16.00;99.90;;;;;;5016312;28;95598;-74
2022/11/01 03:13:47;;;;;;;10.80;6.57;;;16.10;99.90;;;;;;5016588;28;92518;-74
2022/11/01 03:16:23;;;;;;;10.15;6.70;;;16.10;99.90;;;;;;5016721;28;92465;-74
2022/11/01 03:19:17;;;;;;;12.57;5.50;;;16.20;99.90;;;;;;5016076;28;95640;-74
2022/11/01 03:21:55;;;;;;;8.02;6.30;;;16.20;99.90;;;;;;5018215;28;93070;-74
2022/11/01 03:25:03;;;;;;;10.73;5.95;;;16.20;99.90;;;;;;5018226;28;92487;-74
2022/11/01 03:27:40;;;;;;;10.40;6.25;;;16.30;99.90;;;;;;5032913;28;93302;-74
2022/11/01 03:30:12;;;;;;;10.23;6.13;;;16.20;99.90;;;;;;5014966;28;96609;-74
2022/11/01 03:32:51;;;;;;;10.15;6.28;;;16.30;99.90;;;;;;5016168;28;99253;-75
2022/11/01 03:35:25;;;;;;;10.43;6.38;;;16.30;99.90;;;;;;5018017;28;92363;-75
2022/11/01 03:37:56;;;;;;;10.60;6.50;;;16.30;99.90;;;;;;5017258;28;92599;-75
2022/11/01 03:40:27;;;;;;;8.80;5.57;;;16.40;99.90;;;;;;5033102;28;95475;-74
2022/11/01 03:43:01;;;;;;;8.82;6.30;;;16.40;99.90;;;;;;5016627;28;93121;-75
2022/11/01 03:45:31;;;;;;;15.20;7.15;;;16.40;99.90;;;;;;5018043;28;92623;-74
2022/11/01 03:48:00;;;;;;;8.35;6.45;;;16.40;99.90;;;;;;5017489;28;91668;-75
2022/11/01 03:50:27;;;;;;;10.50;6.32;;;16.40;99.90;;;;;;5015426;28;109335;-75
2022/11/01 03:52:54;;;;;;;15.48;6.68;;;16.40;99.90;;;;;;5015652;28;95882;-74
2022/11/01 03:55:22;;;;;;;11.10;7.40;;;16.40;99.90;;;;;;5015059;28;95495;-74
2022/11/01 03:57:57;;;;;;;11.38;6.43;;;16.50;99.90;;;;;;5015762;28;92446;-74
2022/11/01 04:00:39;;;;;;;9.65;6.40;;;16.50;99.90;;;;;;5015201;28;93369;-74
2022/11/01 04:03:06;;;;;;;13.02;6.82;;;16.40;99.90;;;;;;5017274;28;93235;-74
2022/11/01 04:05:34;;;;;;;10.50;6.65;;;16.40;99.90;;;;;;5017275;28;92415;-74
2022/11/01 04:08:02;;;;;;;10.80;7.22;;;16.30;99.90;;;;;;5017348;28;92362;-75
2022/11/01 04:10:29;;;;;;;11.68;6.75;;;16.30;99.90;;;;;;5015551;28;96321;-74
2022/11/01 04:12:57;;;;;;;8.68;6.57;;;16.20;99.90;;;;;;5017178;28;93318;-74
2022/11/01 04:21:13;;;;;;;8.50;5.65;;;16.10;99.90;;;;;;5015761;28;95823;-74
2022/11/01 04:23:42;;;;;;;9.45;6.18;;;15.90;99.90;;;;;;5031982;28;95182;-75
2022/11/01 04:26:18;;;;;;;8.52;6.38;;;15.90;99.90;;;;;;5017255;28;92357;-75
2022/11/01 04:28:55;;;;;;;11.13;6.22;;;15.90;99.90;;;;;;5016842;28;92341;-74
2022/11/01 04:31:27;;;;;;;8.88;6.18;;;15.80;99.90;;;;;;5015431;28;94399;-75
2022/11/01 04:33:55;;;;;;;9.75;6.38;;;15.90;99.90;;;;;;5016545;28;92840;-75
2022/11/01 04:36:23;;;;;;;11.02;6.10;;;15.90;99.90;;;;;;5016478;28;97337;-75
2022/11/01 04:38:51;;;;;;;10.10;5.68;;;15.90;99.90;;;;;;5031974;28;92216;-75
2022/11/01 04:41:18;;;;;;;11.23;5.80;;;15.90;99.90;;;;;;5015118;28;95813;-74
2022/11/01 04:43:48;;;;;;;13.88;6.47;;;16.00;99.90;;;;;;5016436;28;92877;-74
2022/11/01 04:46:15;;;;;;;9.55;6.13;;;16.00;99.90;;;;;;5015206;28;94814;-75
2022/11/01 04:48:42;;;;;;;11.32;6.53;;;15.90;99.90;;;;;;5016761;28;92477;-75
2022/11/01 04:51:10;;;;;;;8.05;5.47;;;16.00;99.90;;;;;;5016321;28;93156;-74
2022/11/01 04:53:37;;;;;;;7.88;5.80;;;16.00;99.90;;;;;;5015173;28;95342;-75
2022/11/01 04:56:07;;;;;;;8.57;6.05;;;16.00;99.90;;;;;;5015274;28;92513;-74
2022/11/01 04:58:35;;;;;;;10.52;6.15;;;16.00;99.90;;;;;;5032039;28;92513;-75
2022/11/01 05:01:06;;;;;;;6.75;5.82;;;16.00;99.90;;;;;;5014799;28;95819;-75
2022/11/01 05:03:34;;;;;;;8.02;5.72;;;16.00;99.90;;;;;;5015423;28;91935;-75
2022/11/01 05:06:01;;;;;;;10.65;6.32;;;16.00;99.90;;;;;;5016002;28;96332;-74
2022/11/01 05:08:28;;;;;;;9.25;5.32;;;16.00;99.90;;;;;;5014996;28;92556;-75
2022/11/01 05:10:55;;;;;;;8.30;5.30;;;16.00;99.90;;;;;;5014775;28;95742;-74
2022/11/01 05:13:22;;;;;;;6.78;5.57;;;16.00;99.90;;;;;;5015687;28;95453;-75
2022/11/01 05:15:49;;;;;;;8.52;6.00;;;16.00;99.90;;;;;;5031647;28;92437;-74
2022/11/01 05:18:39;;;;;;;9.13;6.45;;;16.10;99.90;;;;;;5016489;28;92417;-75
2022/11/01 05:21:06;;;;;;;13.35;5.78;;;16.00;99.90;;;;;;5015756;28;93334;-74
2022/11/01 05:23:33;;;;;;;8.88;5.43;;;16.10;99.90;;;;;;5031284;28;96028;-75
2022/11/01 05:26:00;;;;;;;9.50;6.05;;;16.10;99.90;;;;;;5015673;28;92411;-74
2022/11/01 05:28:27;;;;;;;9.60;5.85;;;16.20;99.90;;;;;;5031862;28;91699;-75
2022/11/01 05:30:54;;;;;;;8.68;5.68;;;16.20;99.90;;;;;;5015654;28;93317;-75
2022/11/01 05:33:21;;;;;;;9.48;5.55;;;16.30;99.90;;;;;;5014522;28;95583;-75
2022/11/01 05:35:47;;;;;;;8.35;5.25;;;16.30;99.90;;;;;;5014625;28;94820;-74
2022/11/01 05:38:14;;;;;;;10.70;5.38;;;16.30;99.90;;;;;;5015229;28;92453;-74
2022/11/01 05:40:41;;;;;;;7.38;4.60;;;16.30;99.90;;;;;;5014346;28;96398;-75
2022/11/01 05:43:08;;;;;;;7.20;5.00;;;16.30;99.90;;;;;;5030974;28;93068;-74
2022/11/01 05:45:36;;;;;;;10.02;5.13;;;16.30;99.90;;;;;;5016246;28;92976;-75
2022/11/01 05:48:03;;;;;;;10.85;4.68;;;16.30;99.90;;;;;;5015702;28;92464;-74
2022/11/01 05:50:31;;;;;;;9.25;5.28;;;16.30;99.90;;;;;;5015378;28;92357;-74
2022/11/01 05:53:08;;;;;;;7.80;4.95;;;16.30;99.90;;;;;;5015536;28;92974;-74
2022/11/01 05:55:36;;;;;;;6.93;4.70;;;16.40;99.90;;;;;;5031395;28;92507;-74
2022/11/01 05:58:03;;;;;;;5.72;4.80;;;16.40;99.90;;;;;;5015351;28;92448;-75
2022/11/01 06:00:31;;;;;;;7.05;4.25;;;16.40;99.90;;;;;;5014499;28;95671;-74
2022/11/01 06:02:59;;;;;;;7.50;4.88;;;16.50;99.90;;;;;;5030230;28;103486;-75
2022/11/01 06:05:27;;;;;;;6.00;4.43;;;16.50;99.90;;;;;;5015556;28;92474;-75
2022/11/01 06:07:54;;;;;;;8.27;4.60;;;16.50;99.90;;;;;;5015440;28;92423;-74
2022/11/01 06:10:21;;;;;;;7.32;4.70;;;16.60;99.90;;;;;;4997168;28;96054;-75
2022/11/01 06:12:48;;;;;;;8.82;5.00;;;16.60;99.90;;;;;;5015215;28;93048;-74
2022/11/01 06:15:15;;;;;;;6.75;4.63;;;16.60;99.90;;;;;;5015307;28;92461;-75
2022/11/01 06:17:42;;;;;;;11.13;4.68;;;16.50;99.90;;;;;;5014378;28;91802;-74
2022/11/01 06:20:10;;;;;;;8.00;4.45;;;16.50;99.90;;;;;;5015074;28;93383;-74
2022/11/01 06:22:37;;;;;;;6.40;4.70;;;16.60;99.90;;;;;;5015188;28;92896;-75
2022/11/01 06:25:05;;;;;;;7.35;4.45;;;16.60;99.90;;;;;;5016179;28;94927;-75
2022/11/01 06:27:32;;;;;;;7.30;4.45;;;16.60;99.90;;;;;;5018755;28;92502;-75
2022/11/01 06:29:59;;;;;;;6.35;3.65;;;16.60;99.90;;;;;;5017123;28;95810;-75
2022/11/01 06:32:26;;;;;;;6.68;2.70;;;16.60;99.90;;;;;;5018323;28;93074;-74
2022/11/01 06:34:53;;;;;;;4.05;1.90;;;16.60;99.90;;;;;;5018632;28;92532;-75
2022/11/01 06:37:20;;;;;;;4.63;1.70;;;16.60;99.90;;;;;;5016382;28;92579;-75
2022/11/01 06:39:47;;;;;;;3.72;1.80;;;16.60;99.90;;;;;;5017079;28;93238;-77
2022/11/01 06:42:14;;;;;;;4.57;2.40;;;16.60;99.90;;;;;;4984068;28;95727;-75
2022/11/01 06:44:41;;;;;;;2.97;2.08;;;16.60;99.90;;;;;;5034097;28;92535;-74
2022/11/01 06:47:08;;;;;;;5.13;1.60;;;16.60;99.90;;;;;;5016887;28;92493;-75
2022/11/01 06:49:35;;;;;;;4.63;1.65;;;16.50;99.90;;;;;;5016064;28;95700;-74
2022/11/01 06:52:03;;;;;;;2.63;1.80;;;16.50;99.90;;;;;;5018191;28;95413;-75
2022/11/01 06:54:31;;;;;;;1.85;1.50;;;16.40;99.90;;;;;;5018379;28;92447;-75
2022/11/01 06:56:58;;;;;;;6.18;1.45;;;16.40;99.90;;;;;;5018318;28;92475;-74
2022/11/01 06:59:25;;;;;;;3.83;2.05;;;16.30;99.90;;;;;;5033620;28;93093;-74
2022/11/01 07:01:52;;;;;;;4.35;2.45;;;16.20;99.90;;;;;;5017959;28;92919;-75
2022/11/01 07:04:20;;;;;;;4.75;1.75;;;16.10;99.90;;;;;;5017952;28;92338;-75
2022/11/01 07:06:47;;;;;;;3.42;1.85;;;16.10;99.90;;;;;;5018471;28;91717;-74
2022/11/01 07:09:14;;;;;;;2.45;1.40;;;16.00;99.90;;;;;;5033465;28;93251;-74
2022/11/01 07:11:41;;;;;;;2.03;1.50;;;15.90;99.90;;;;;;5016662;28;93838;-74
2022/11/01 07:14:08;;;;;;;4.80;1.65;;;15.80;99.90;;;;;;5016540;28;94768;-75
2022/11/01 07:16:37;;;;;;;3.95;1.30;;;15.80;99.90;;;;;;5018088;28;92467;-74
2022/11/01 07:19:04;;;;;;;2.83;1.13;;;15.70;99.90;;;;;;5017746;28;93389;-74
2022/11/01 07:21:31;;;;;;;3.80;1.40;;;15.60;99.90;;;;;;5016486;28;93160;-74
2022/11/01 07:23:58;;;;;;;5.20;1.20;;;15.50;99.90;;;;;;5016187;28;100070;-74
2022/11/01 07:26:25;;;;;;;5.00;1.77;;;15.50;99.90;;;;;;5017646;28;92555;-74
2022/11/01 07:28:52;;;;;;;1.75;1.00;;;15.50;99.90;;;;;;5016384;28;95947;-74
2022/11/01 07:31:19;;;;;;;1.90;1.45;;;15.50;99.90;;;;;;5016616;28;92951;-75
2022/11/01 07:33:46;;;;;;;3.25;1.10;;;15.50;99.90;;;;;;5016415;28;92550;-75
2022/11/01 07:36:13;;;;;;;3.88;1.23;;;15.40;99.90;;;;;;5014775;28;92489;-75
2022/11/01 07:38:40;;;;;;;2.17;1.33;;;15.40;99.90;;;;;;5015571;28;95751;-75
2022/11/01 07:41:08;;;;;;;4.43;2.03;;;15.40;99.90;;;;;;5016534;28;95345;-75
2022/11/01 07:43:35;;;;;;;2.78;2.50;;;15.50;99.90;;;;;;4999423;28;92464;-75
2022/11/01 07:46:04;;;;;;;4.70;4.40;;;15.50;99.90;;;;;;5016415;28;92911;-74
2022/11/01 07:48:32;;;;;;;2.58;1.50;;;15.60;99.90;;;;;;5017127;28;93282;-74
2022/11/01 07:50:59;;;;;;;2.42;1.75;;;15.70;99.90;;;;;;5017408;28;98666;-75
2022/11/01 07:53:26;;;;;;;2.15;1.23;;;15.90;99.90;;;;;;5015965;28;92484;-74
2022/11/01 07:55:53;;;;;;;1.98;1.30;;;16.00;99.90;;;;;;5017736;28;91691;-75
2022/11/01 07:58:20;;;;;;;2.75;1.35;;;16.10;99.90;;;;;;5016866;28;93161;-75
2022/11/01 08:00:46;;;;;;;1.52;1.20;;;16.20;99.90;;;;;;5016209;28;92655;-75
2022/11/01 08:03:15;;;;;;;2.20;1.40;;;16.20;99.90;;;;;;5014856;28;94861;-74
2022/11/01 08:05:43;;;;;;;4.70;1.52;;;16.30;99.90;;;;;;5015913;28;92552;-74
2022/11/01 08:08:11;;;;;;;4.82;1.38;;;16.40;99.90;;;;;;5017055;28;93007;-74
2022/11/01 08:10:38;;;;;;;4.50;1.35;;;16.40;99.90;;;;;;5016779;28;93025;-74
2022/11/01 08:13:20;;;;;;;5.63;1.27;;;16.40;99.90;;;;;;5015864;28;93065;-74
2022/11/01 08:15:48;;;;;;;6.65;1.63;;;16.50;99.90;;;;;;5015697;28;92494;-74
2022/11/01 08:18:17;;;;;;;6.15;1.75;;;16.50;99.90;;;;;;5015500;28;95739;-75
2022/11/01 08:20:44;;;;;;;7.30;2.15;;;16.60;99.90;;;;;;5016070;28;92988;-75
2022/11/01 08:23:11;;;;;;;3.65;1.38;;;16.60;99.90;;;;;;5016977;28;92340;-75
2022/11/01 08:25:39;;;;;;;8.40;1.58;;;16.60;99.90;;;;;;5016674;28;92443;-75
2022/11/01 08:28:09;;;;;;;6.05;2.00;;;16.60;99.90;;;;;;5031072;28;95756;-75
2022/11/01 08:30:38;;;;;;;10.52;1.90;;;16.60;99.90;;;;;;5016604;28;95409;-74
2022/11/01 08:33:05;;;;;;;4.80;1.90;;;16.50;99.90;;;;;;5015566;28;92598;-75
2022/11/01 08:35:33;;;;;;;6.63;2.17;;;16.50;99.90;;;;;;5016627;28;93006;-75
2022/11/01 08:38:02;;;;;;;8.80;2.45;;;16.60;99.90;;;;;;5032129;28;95996;-75
2022/11/01 08:40:31;;;;;;;6.53;1.60;;;16.60;99.90;;;;;;5015132;28;92947;-75
2022/11/01 08:42:58;;;;;;;7.60;2.00;;;16.70;99.90;;;;;;5016769;28;92456;-75
2022/11/01 08:45:26;;;;;;;10.07;2.17;;;16.70;99.90;;;;;;5017086;28;91875;-75
2022/11/01 08:48:02;;;;;;;4.72;1.98;;;16.80;99.90;;;;;;5014141;28;105462;-75
2022/11/01 08:50:29;;;;;;;8.98;2.47;;;16.90;99.90;;;;;;5014943;28;95596;-75
2022/11/01 08:52:56;;;;;;;7.93;2.00;;;17.00;99.90;;;;;;5030724;28;94897;-75
2022/11/01 08:55:23;;;;;;;9.07;2.20;;;17.00;99.90;;;;;;5015108;28;93196;-75
2022/11/01 08:57:51;;;;;;;10.60;2.55;;;17.10;99.90;;;;;;5031743;28;93352;-75
2022/11/01 09:00:18;;;;;;;8.85;2.47;;;17.20;99.90;;;;;;5016450;28;92707;-74
2022/11/01 09:02:45;;;;;;;13.05;2.95;;;17.30;99.90;;;;;;5015991;28;92437;-74
2022/11/01 09:05:12;;;;;;;9.10;2.30;;;17.40;99.90;;;;;;5016257;28;92436;-75
2022/11/01 09:07:39;;;;;;;10.35;2.20;;;17.40;99.70;;;;;;5016059;28;92359;-75
2022/11/01 09:10:06;;;;;;;11.82;2.85;;;17.40;99.40;;;;;;5014872;28;94077;-74
2022/11/01 09:12:34;;;;;;;9.55;2.42;;;17.40;99.80;;;;;;5014840;28;92561;-75
2022/11/01 09:15:01;;;;;;;11.50;2.30;;;17.40;99.60;;;;;;5014462;28;92603;-75
2022/11/01 09:17:28;;;;;;;11.68;2.78;;;17.40;99.70;;;;;;5013308;28;98394;-75
2022/11/01 09:19:55;;;;;;;7.88;2.53;;;17.40;99.70;;;;;;5031321;28;100939;-74
2022/11/01 09:22:22;;;;;;;12.18;2.60;;;17.30;99.60;;;;;;5016285;28;92584;-74
2022/11/01 09:24:50;;;;;;;11.00;2.55;;;17.30;99.90;;;;;;5014526;28;93497;-74
2022/11/01 09:27:17;;;;;;;10.07;2.65;;;17.30;99.90;;;;;;5031339;28;92877;-75
2022/11/01 09:29:44;;;;;;;8.27;2.10;;;17.20;99.90;;;;;;5014285;28;94161;-75
2022/11/01 09:32:12;;;;;;;8.55;2.70;;;17.20;99.90;;;;;;5014576;28;92435;-74
2022/11/01 09:34:39;;;;;;;12.48;2.50;;;17.30;99.90;;;;;;4981660;28;91758;-75
2022/11/01 09:37:06;;;;;;;17.48;2.38;;;17.30;99.90;;;;;;5015622;28;93391;-75
2022/11/01 09:39:33;;;;;;;12.10;2.60;;;17.20;99.90;;;;;;5015261;28;92929;-75
2022/11/01 09:42:09;;;;;;;7.43;1.95;;;17.20;99.90;;;;;;5013392;28;94747;-74
2022/11/01 09:44:41;;;;;;;10.80;2.67;;;17.20;99.80;;;;;;5014328;28;92416;-74
2022/11/01 09:47:29;;;;;;;17.05;3.38;;;17.20;99.90;;;;;;5014491;28;95779;-75
2022/11/01 09:50:10;;;;;;;10.77;2.53;;;17.30;99.90;;;;;;5015450;28;93019;-75
2022/11/01 09:52:39;;;;;;;12.63;2.58;;;17.30;99.90;;;;;;5015493;28;92567;-75
2022/11/01 09:55:15;;;;;;;10.95;2.38;;;17.20;99.90;;;;;;4997727;28;92974;-75
2022/11/01 09:57:56;;;;;;;11.20;2.47;;;17.40;99.90;;;;;;5015335;28;92829;-74
2022/11/01 10:00:24;;;;;;;12.43;2.83;;;17.40;99.90;;;;;;5013727;28;95540;-74
2022/11/01 10:03:18;;;;;;;10.65;2.58;;;17.50;99.90;;;;;;5015284;28;93065;-74
2022/11/01 10:06:04;;;;;;;11.25;2.67;;;17.50;99.90;;;;;;5015522;28;92360;-78
2022/11/01 10:08:59;;;;;;;11.27;2.70;;;17.50;99.90;;;;;;5012855;28;97951;-77
2022/11/01 10:12:04;;;;;;;8.52;2.47;;;17.60;99.90;;;;;;5013748;28;96463;-77
2022/11/01 10:14:55;;;;;;;10.80;2.40;;;17.50;99.90;;;;;;5015537;28;92407;-78
2022/11/01 10:17:36;;;;;;;9.80;2.67;;;17.60;99.90;;;;;;5013797;28;92556;-77
2022/11/01 10:20:05;;;;;;;16.42;3.40;;;17.50;99.90;;;;;;5013895;28;95669;-77
2022/11/01 10:22:36;;;;;;;6.97;2.05;;;17.60;99.90;;;;;;4997462;28;94595;-77
2022/11/01 10:25:15;;;;;;;10.73;2.53;;;17.60;99.90;;;;;;5015627;28;92345;-77
2022/11/01 10:27:51;;;;;;;13.15;2.85;;;17.60;99.90;;;;;;5014315;28;92278;-77
2022/11/01 10:30:19;;;;;;;12.73;2.28;;;17.70;99.90;;;;;;5015239;28;93211;-78
2022/11/01 10:33:11;;;;;;;13.32;2.60;;;17.70;99.90;;;;;;5013585;28;95935;-77
2022/11/01 10:35:42;;;;;;;13.73;2.90;;;17.90;99.90;;;;;;5014263;28;94809;-78
2022/11/01 10:38:39;;;;;;;10.55;2.28;;;17.80;99.90;;;;;;5014101;28;92493;-77
2022/11/01 10:41:34;;;;;;;12.70;2.20;;;17.90;99.90;;;;;;5014875;28;93301;-77
2022/11/01 10:44:04;;;;;;;8.82;2.25;;;17.90;99.90;;;;;;5013244;28;95397;-77
2022/11/01 10:46:44;;;;;;;9.57;2.25;;;18.00;99.90;;;;;;5014954;28;92395;-77
2022/11/01 10:49:33;;;;;;;11.27;2.83;;;18.00;99.90;;;;;;5015219;28;92452;-78
2022/11/01 10:52:27;;;;;;;13.85;3.78;;;18.00;99.90;;;;;;5013547;28;94314;-77
2022/11/01 10:54:55;;;;;;;12.35;2.58;;;18.00;99.90;;;;;;5014850;28;93052;-77
2022/11/01 10:57:36;;;;;;;8.70;2.55;;;18.00;99.90;;;;;;5013925;28;92437;-77
2022/11/01 11:00:07;;;;;;;9.38;2.55;;;18.00;99.90;;;;;;5013350;28;92523;-78
2022/11/01 11:02:48;;;;;;;9.52;2.53;;;18.10;99.80;;;;;;5013689;28;95484;-77
2022/11/01 11:05:15;;;;;;;9.55;2.58;;;18.10;99.80;;;;;;5014583;28;95300;-77
2022/11/01 11:07:43;;;;;;;14.65;3.20;;;18.10;99.90;;;;;;5013586;28;92360;-77
2022/11/01 11:10:23;;;;;;;11.95;2.63;;;18.20;99.70;;;;;;5015611;28;92954;-77
2022/11/01 11:12:56;;;;;;;15.05;2.95;;;18.30;99.60;;;;;;5033234;28;93401;-77
2022/11/01 11:15:48;;;;;;;9.38;2.60;;;18.40;99.50;;;;;;5016550;28;95890;-77
2022/11/01 11:18:36;;;;;;;9.18;2.80;;;18.40;99.40;;;;;;5017927;28;93086;-77
2022/11/01 11:21:21;;;;;;;12.27;2.85;;;18.40;99.40;;;;;;5033957;28;91773;-77
2022/11/01 11:23:53;;;;;;;11.38;2.53;;;18.40;99.40;;;;;;5017781;28;93185;-78
2022/11/01 11:26:20;;;;;;;10.77;2.85;;;18.40;99.70;;;;;;5017586;28;93302;-78
2022/11/01 11:28:55;;;;;;;9.48;2.28;;;18.40;99.90;;;;;;5015406;28;94951;-78
2022/11/01 11:31:33;;;;;;;11.25;3.15;;;18.60;99.60;;;;;;5016747;28;92487;-78
2022/11/01 11:34:15;;;;;;;11.18;2.45;;;18.70;99.60;;;;;;5016054;28;93134;-78
2022/11/01 11:36:45;;;;;;;13.85;3.15;;;18.80;99.40;;;;;;5016063;28;94372;-78
2022/11/01 11:39:57;;;;;;;14.93;2.63;;;18.90;99.30;;;;;;5017556;28;92522;-77
2022/11/01 11:42:25;;;;;;;13.85;2.90;;;18.90;99.30;;;;;;5010414;28;92651;-77
2022/11/01 11:44:54;;;;;;;12.55;2.95;;;18.70;99.50;;;;;;5017165;28;93528;-78
2022/11/01 11:47:23;;;;;;;10.18;2.88;;;18.70;99.60;;;;;;5017810;28;94203;-78
2022/11/01 11:49:52;;;;;;;11.75;2.50;;;18.70;99.60;;;;;;5017393;28;92425;-78
2022/11/01 11:52:34;;;;;;;14.10;2.78;;;18.60;99.70;;;;;;5016199;28;92529;-78
2022/11/01 11:55:06;;;;;;;9.85;2.70;;;18.50;99.80;;;;;;5016070;28;95735;-77
2022/11/01 11:57:33;;;;;;;10.27;2.72;;;18.60;99.90;;;;;;5016786;28;95412;-77
2022/11/01 12:00:04;;;;;;;14.05;3.08;;;18.60;99.90;;;;;;5032822;28;93025;-78
2022/11/01 12:02:40;;;;;;;11.48;2.60;;;18.60;99.90;;;;;;5015866;28;92331;-78
2022/11/01 12:05:13;;;;;;;9.50;2.97;;;18.70;99.80;;;;;;5032374;28;93350;-77
2022/11/01 12:07:45;;;;;;;;;;;18.70;99.70;;;;;;5016085;28;94424;-77
2022/11/01 12:10:36;;;;;;;12.90;2.58;;;18.60;99.70;;;;;;5016910;28;92453;-77
2022/11/01 12:13:55;;;;;;;11.60;2.50;;;18.70;99.90;;;;;;5017633;28;91688;-77
2022/11/01 12:16:24;;;;;;;12.30;2.35;;;18.70;99.90;;;;;;5004437;28;93385;-78
2022/11/01 12:19:00;;;;;;;10.45;2.60;;;18.70;99.80;;;;;;5016855;28;93082;-77
2022/11/01 12:21:34;;;;;;;11.55;2.47;;;18.80;99.40;;;;;;5015300;28;94847;-78
2022/11/01 12:24:28;;;;;;;10.93;2.38;;;18.80;99.30;;;;;;5016936;28;92440;-78
2022/11/01 12:26:58;;;;;;;;;;;18.90;99.30;;;;;;5017295;28;93101;-77
2022/11/01 12:29:28;;;;;;;10.13;2.88;;;18.70;99.50;;;;;;5018007;28;92704;-78
2022/11/01 12:32:10;;;;;;;8.90;2.47;;;18.70;99.60;;;;;;5015631;28;92473;-78
2022/11/01 12:34:40;;;;;;;8.40;2.30;;;18.80;99.30;;;;;;5017105;28;92412;-78
2022/11/01 12:37:22;;;;;;;8.10;2.30;;;18.90;99.30;;;;;;5031754;28;93315;-78
2022/11/01 12:39:55;;;;;;;9.55;2.28;;;19.00;99.00;;;;;;5032358;28;92902;-78
2022/11/01 12:42:39;;;;;;;11.13;2.58;;;19.00;98.90;;;;;;5017038;28;92437;-78
2022/11/01 12:45:16;;;;;;;10.82;2.45;;;19.10;98.90;;;;;;5032195;28;92444;-78
2022/11/01 12:47:48;;;;;;;8.18;2.30;;;19.00;98.80;;;;;;5014187;28;95696;-78
2022/11/01 12:50:22;;;;;;;12.15;2.53;;;18.90;98.90;;;;;;5016285;28;95266;-78
2022/11/01 12:52:57;;;;;;;6.85;2.65;;;18.90;98.90;;;;;;5016545;28;92551;-78
2022/11/01 12:55:36;;;;;;;7.57;2.13;;;18.90;98.80;;;;;;4998521;28;92509;-78
2022/11/01 12:58:05;;;;;;;7.78;2.08;;;18.90;98.80;;;;;;5015961;28;94084;-78
2022/11/01 13:00:54;;;;;;;11.40;2.78;;;18.80;99.10;;;;;;5014613;28;95711;-78
2022/11/01 13:03:43;;;;;;;10.65;2.13;;;18.90;99.10;;;;;;4994843;28;92520;-77
2022/11/01 13:06:50;;;;;;;8.27;2.33;;;18.80;99.10;;;;;;5014896;28;92315;-78
2022/11/01 13:09:27;;;;;;;7.28;1.92;;;18.80;99.00;;;;;;5031319;28;93298;-78
2022/11/01 13:12:12;;;;;;;6.47;2.00;;;18.70;99.10;;;;;;5031450;28;92434;-77
2022/11/01 13:14:54;;;;;;;7.60;2.08;;;18.80;99.10;;;;;;5013929;28;94955;-78